Pagrindinis puslapis
METAR-TAF:

METAR-TAF

Oro uostai :

Tatalina, Aliaska, Jungtinės Amerikos Valstijos

platuma: 62-54N, ilguma: 155-59W, Aukštis: 294 m

Dabartinis oras

Ataskaita buvo paskelbta 25 minutes, ne 20:32 UTC
Ramus vėjas
Temperatūra -3°C
Drėgmė 93%
Slėgis 1020 hPa
Matomumas: 16.1 km
Su prošvaistėmis ne aukštis 1500 ft
Apsiniaukę ne aukštis 3700 ft

METAR: PATL 282032Z AUTO 00000KT 10SM BKN015 OVC037 M03/M04 A3012 RMK AO2 SLP221

Laikas: 12:57 (20:57 UTC)


TAF: trūkstamas

Orai ataskaitas ir orų prognozės (METAR, TAF).

turimą stotys yra geltonos ir raudonos taškus žemėlapyje.

Perkelti pele per norėdami pamatyti stoties vardą.

Tada spustelėkite, norėdami matyti oro stebėjimo ir prognozės.

Norėdami pakeisti žemėlapį: spustelėkite ant žalios mygtukų su juodo kryžiaus žemyn,; žalią mygtuką su brūkšneliu, jei norite nutolinti; arba žalių rodyklių gretimoms žemėlapius.


METAR-TAF: